createdAt,value
2023-04-22T00:00:32.221Z,0.00
2023-04-22T00:01:32.226Z,0.00
2023-04-22T00:02:32.352Z,0.00
2023-04-22T00:03:32.376Z,0.00
2023-04-22T00:04:32.426Z,0.00
2023-04-22T00:05:32.253Z,0.00
2023-04-22T00:06:32.209Z,0.00
2023-04-22T00:07:32.207Z,0.00
2023-04-22T00:08:32.207Z,0.00
2023-04-22T00:09:32.210Z,0.00
2023-04-22T00:10:32.206Z,0.00
2023-04-22T00:11:32.202Z,0.00
2023-04-22T00:12:32.203Z,0.00
2023-04-22T00:13:32.200Z,0.00
2023-04-22T00:14:32.211Z,0.00
2023-04-22T00:15:32.207Z,0.00
2023-04-22T00:16:32.305Z,0.00
2023-04-22T00:17:32.240Z,0.00
2023-04-22T00:18:32.196Z,0.00
2023-04-22T00:19:32.199Z,0.00
2023-04-22T00:20:32.224Z,0.00
2023-04-22T00:21:32.195Z,0.00
2023-04-22T00:22:32.195Z,0.00
2023-04-22T00:23:32.188Z,0.00
2023-04-22T00:24:32.188Z,0.00
2023-04-22T00:25:32.201Z,0.00
2023-04-22T00:26:32.188Z,0.00
2023-04-22T00:27:32.195Z,0.00
2023-04-22T00:28:32.183Z,0.00
2023-04-22T00:29:32.181Z,0.00
2023-04-22T00:30:32.195Z,0.00
2023-04-22T00:31:32.331Z,0.00
2023-04-22T00:32:32.215Z,0.00
2023-04-22T00:33:32.176Z,0.00
2023-04-22T00:34:32.186Z,0.00
2023-04-22T00:35:32.215Z,0.00
2023-04-22T00:36:32.196Z,0.00
2023-04-22T00:37:32.182Z,0.00
2023-04-22T00:38:32.171Z,0.00
2023-04-22T00:39:32.168Z,0.00
2023-04-22T00:40:32.179Z,0.00
2023-04-22T00:41:32.164Z,0.00
2023-04-22T00:42:32.166Z,0.00
2023-04-22T00:43:32.166Z,0.00
2023-04-22T00:44:32.165Z,0.00
2023-04-22T00:45:32.167Z,0.00
2023-04-22T00:46:32.199Z,0.00
2023-04-22T00:47:32.210Z,0.00
2023-04-22T00:48:32.163Z,0.00
2023-04-22T00:49:32.162Z,0.00
2023-04-22T00:50:32.157Z,0.00
2023-04-22T00:51:32.156Z,0.00
2023-04-22T00:52:32.180Z,0.00
2023-04-22T00:53:32.149Z,0.00
2023-04-22T00:54:32.157Z,0.00
2023-04-22T00:55:32.150Z,0.00
2023-04-22T00:56:32.165Z,0.00
2023-04-22T00:57:32.143Z,0.00
2023-04-22T00:58:32.151Z,0.00
2023-04-22T00:59:32.150Z,0.00
2023-04-22T01:00:32.169Z,0.00
2023-04-22T01:01:32.369Z,0.00
2023-04-22T01:02:32.319Z,0.00
2023-04-22T01:03:32.283Z,0.00
2023-04-22T01:04:32.187Z,0.00
2023-04-22T01:05:32.142Z,0.00
2023-04-22T01:06:32.144Z,0.00
2023-04-22T01:07:32.146Z,0.00
2023-04-22T01:08:32.157Z,0.00
2023-04-22T01:09:32.130Z,0.00
2023-04-22T01:10:32.137Z,0.00
2023-04-22T01:11:32.133Z,0.00
2023-04-22T01:12:32.139Z,0.00
2023-04-22T01:13:32.126Z,0.00
2023-04-22T01:14:32.134Z,0.00
2023-04-22T01:15:32.130Z,0.00
2023-04-22T01:16:32.191Z,0.00
2023-04-22T01:17:32.158Z,0.00
2023-04-22T01:18:32.130Z,0.00
2023-04-22T01:19:32.125Z,0.00
2023-04-22T01:20:32.143Z,0.00
2023-04-22T01:21:32.120Z,0.00
2023-04-22T01:22:32.123Z,0.00
2023-04-22T01:23:32.126Z,0.00
2023-04-22T01:24:32.139Z,0.00
2023-04-22T01:25:32.114Z,0.00
2023-04-22T01:26:32.120Z,0.00
2023-04-22T01:27:32.116Z,0.00
2023-04-22T01:28:32.116Z,0.00
2023-04-22T01:29:32.110Z,0.00
2023-04-22T01:30:32.120Z,0.00
2023-04-22T01:31:32.184Z,0.00
2023-04-22T01:32:32.113Z,0.00
2023-04-22T01:33:32.108Z,0.00
2023-04-22T01:34:32.110Z,0.00
2023-04-22T01:35:32.193Z,0.00
2023-04-22T01:36:32.105Z,0.00
2023-04-22T01:37:32.099Z,0.00
2023-04-22T01:38:32.109Z,0.00
2023-04-22T01:39:32.094Z,0.00
2023-04-22T01:40:32.121Z,0.00
2023-04-22T01:41:32.096Z,0.00
2023-04-22T01:42:32.097Z,0.00
2023-04-22T01:43:32.093Z,0.00
2023-04-22T01:44:32.091Z,0.00
2023-04-22T01:45:32.091Z,0.00
2023-04-22T01:46:32.153Z,0.00
2023-04-22T01:47:32.098Z,0.00
2023-04-22T01:48:32.093Z,0.00
2023-04-22T01:49:32.084Z,0.00
2023-04-22T01:50:32.089Z,0.00
2023-04-22T01:51:32.090Z,0.00
2023-04-22T01:52:32.085Z,0.00
2023-04-22T01:53:32.085Z,0.00
2023-04-22T01:54:32.082Z,0.00
2023-04-22T01:55:32.084Z,0.00
2023-04-22T01:56:32.139Z,0.00
2023-04-22T01:57:32.072Z,0.00
2023-04-22T01:58:32.080Z,0.00
2023-04-22T01:59:32.078Z,0.00
2023-04-22T02:00:32.086Z,0.00
2023-04-22T02:01:32.211Z,0.00
2023-04-22T02:02:32.166Z,0.00
2023-04-22T02:03:32.161Z,0.00
2023-04-22T02:04:32.095Z,0.00
2023-04-22T02:05:32.063Z,0.00
2023-04-22T02:06:32.068Z,0.00
2023-04-22T02:07:32.054Z,0.00
2023-04-22T02:08:32.064Z,0.00
2023-04-22T02:09:32.061Z,0.00
2023-04-22T02:10:32.058Z,0.00
2023-04-22T02:11:32.071Z,0.00
2023-04-22T02:12:32.077Z,0.00
2023-04-22T02:13:32.052Z,0.00
2023-04-22T02:14:32.051Z,0.00
2023-04-22T02:15:32.134Z,0.00
2023-04-22T02:16:32.150Z,0.00
2023-04-22T02:17:32.043Z,0.00
2023-04-22T02:18:32.050Z,0.00
2023-04-22T02:19:32.073Z,0.00
2023-04-22T02:20:32.046Z,0.00
2023-04-22T02:21:32.037Z,0.00
2023-04-22T02:22:32.034Z,0.00
2023-04-22T02:23:32.041Z,0.00
2023-04-22T02:24:32.055Z,0.00
2023-04-22T02:25:32.035Z,0.00
2023-04-22T02:26:32.034Z,0.00
2023-04-22T02:27:32.028Z,0.00
2023-04-22T02:28:32.062Z,0.00
2023-04-22T02:29:32.027Z,0.00
2023-04-22T02:30:32.033Z,0.00
2023-04-22T02:31:32.054Z,0.00
2023-04-22T02:32:32.199Z,0.00
2023-04-22T02:33:32.017Z,0.00
2023-04-22T02:34:32.021Z,0.00
2023-04-22T02:35:32.013Z,0.00
2023-04-22T02:36:32.016Z,0.00
2023-04-22T02:37:32.013Z,0.00
2023-04-22T02:38:32.027Z,0.00
2023-04-22T02:39:32.015Z,0.00
2023-04-22T02:40:32.024Z,0.00
2023-04-22T02:41:32.006Z,0.00
2023-04-22T02:42:32.010Z,0.00
2023-04-22T02:43:32.000Z,0.00
2023-04-22T02:44:32.027Z,0.00
2023-04-22T02:45:32.010Z,0.00
2023-04-22T02:46:32.041Z,0.00
2023-04-22T02:47:32.048Z,0.00
2023-04-22T02:48:32.004Z,0.00
2023-04-22T02:49:31.993Z,0.00
2023-04-22T02:50:31.994Z,0.00
2023-04-22T02:51:31.989Z,0.00
2023-04-22T02:52:32.001Z,0.00
2023-04-22T02:53:31.984Z,0.00
2023-04-22T02:54:31.988Z,0.00
2023-04-22T02:55:31.979Z,0.00
2023-04-22T02:56:31.982Z,0.00
2023-04-22T02:57:31.981Z,0.00
2023-04-22T02:58:31.986Z,0.00
2023-04-22T02:59:31.980Z,0.00
2023-04-22T03:00:32.054Z,0.00
2023-04-22T03:01:32.003Z,0.00
2023-04-22T03:02:32.123Z,0.00
2023-04-22T03:03:32.293Z,0.00
2023-04-22T03:04:32.056Z,0.00
2023-04-22T03:05:31.966Z,0.00
2023-04-22T03:06:32.007Z,0.00
2023-04-22T03:07:31.964Z,0.00
2023-04-22T03:08:31.964Z,0.00
2023-04-22T03:09:31.967Z,0.00
2023-04-22T03:10:31.962Z,0.00
2023-04-22T03:11:31.957Z,0.00
2023-04-22T03:12:31.968Z,0.00
2023-04-22T03:13:31.954Z,0.00
2023-04-22T03:14:31.962Z,0.00
2023-04-22T03:15:31.947Z,0.00
2023-04-22T03:16:32.023Z,0.00
2023-04-22T03:17:31.998Z,0.00
2023-04-22T03:18:31.950Z,4.00
2023-04-22T03:19:31.949Z,4.00
2023-04-22T03:20:31.940Z,0.00
2023-04-22T03:21:31.945Z,0.00
2023-04-22T03:22:31.939Z,0.00
2023-04-22T03:23:31.954Z,0.00
2023-04-22T03:24:31.941Z,0.00
2023-04-22T03:25:31.938Z,4.00
2023-04-22T03:26:31.939Z,0.00
2023-04-22T03:27:31.941Z,0.00
2023-04-22T03:28:31.932Z,4.00
2023-04-22T03:29:31.931Z,4.00
2023-04-22T03:30:31.937Z,4.00
2023-04-22T03:31:31.973Z,8.00
2023-04-22T03:32:32.013Z,4.00
2023-04-22T03:33:31.923Z,4.00
2023-04-22T03:34:31.922Z,8.00
2023-04-22T03:35:31.922Z,12.00
2023-04-22T03:36:31.918Z,12.00
2023-04-22T03:37:31.912Z,12.00
2023-04-22T03:38:31.911Z,16.00
2023-04-22T03:39:31.912Z,20.00
2023-04-22T03:40:31.909Z,20.00
2023-04-22T03:41:31.913Z,24.00
2023-04-22T03:42:31.906Z,24.00
2023-04-22T03:43:31.908Z,32.00
2023-04-22T03:44:31.900Z,32.00
2023-04-22T03:45:31.947Z,40.00
2023-04-22T03:46:32.033Z,44.00
2023-04-22T03:47:31.915Z,44.00
2023-04-22T03:48:31.929Z,52.00
2023-04-22T03:49:31.895Z,60.00
2023-04-22T03:50:31.895Z,64.00
2023-04-22T03:51:31.895Z,72.00
2023-04-22T03:52:31.888Z,80.00
2023-04-22T03:53:31.890Z,88.00
2023-04-22T03:54:31.888Z,96.00
2023-04-22T03:55:31.896Z,104.00
2023-04-22T03:56:31.887Z,112.00
2023-04-22T03:57:31.879Z,124.00
2023-04-22T03:58:31.874Z,132.00
2023-04-22T03:59:31.876Z,144.00
2023-04-22T04:00:31.873Z,156.00
2023-04-22T04:01:31.870Z,168.00
2023-04-22T04:02:31.941Z,176.00
2023-04-22T04:03:32.049Z,192.00
2023-04-22T04:04:32.203Z,204.00
2023-04-22T04:05:31.989Z,216.00
2023-04-22T04:06:31.871Z,232.00
2023-04-22T04:07:31.860Z,244.00
2023-04-22T04:08:31.854Z,260.00
2023-04-22T04:09:31.882Z,276.00
2023-04-22T04:10:31.853Z,288.00
2023-04-22T04:11:31.853Z,304.00
2023-04-22T04:12:31.845Z,320.00
2023-04-22T04:13:31.854Z,332.00
2023-04-22T04:14:31.838Z,352.00
2023-04-22T04:15:31.845Z,368.00
2023-04-22T04:16:31.986Z,380.00
2023-04-22T04:17:31.858Z,400.00
2023-04-22T04:18:31.845Z,416.00
2023-04-22T04:19:31.838Z,432.00
2023-04-22T04:20:31.850Z,448.00
2023-04-22T04:21:31.830Z,464.00
2023-04-22T04:22:31.827Z,484.00
2023-04-22T04:23:31.836Z,500.00
2023-04-22T04:24:31.822Z,516.00
2023-04-22T04:25:31.823Z,532.00
2023-04-22T04:26:31.825Z,552.00
2023-04-22T04:27:31.824Z,568.00
2023-04-22T04:28:31.818Z,584.00
2023-04-22T04:29:31.817Z,600.00
2023-04-22T04:30:33.541Z,620.00
2023-04-22T04:31:31.900Z,640.00
2023-04-22T04:32:31.867Z,652.00
2023-04-22T04:33:31.827Z,672.00
2023-04-22T04:34:31.803Z,688.00
2023-04-22T04:35:31.804Z,704.00
2023-04-22T04:36:31.818Z,724.00
2023-04-22T04:37:31.810Z,740.00
2023-04-22T04:38:31.793Z,756.00
2023-04-22T04:39:31.801Z,772.00
2023-04-22T04:40:31.792Z,788.00
2023-04-22T04:41:31.795Z,808.00
2023-04-22T04:42:31.782Z,824.00
2023-04-22T04:43:31.790Z,840.00
2023-04-22T04:44:31.924Z,860.00
2023-04-22T04:45:31.780Z,876.00
2023-04-22T04:46:31.809Z,892.00
2023-04-22T04:47:31.803Z,912.00
2023-04-22T04:48:31.769Z,928.00
2023-04-22T04:49:31.775Z,948.00
2023-04-22T04:50:31.772Z,968.00
2023-04-22T04:51:31.769Z,984.00
2023-04-22T04:52:31.804Z,1000.00
2023-04-22T04:53:31.772Z,1020.00
2023-04-22T04:54:31.761Z,1036.00
2023-04-22T04:55:31.764Z,1052.00
2023-04-22T04:56:31.763Z,1064.00
2023-04-22T04:57:31.754Z,1080.00
2023-04-22T04:58:31.756Z,1096.00
2023-04-22T04:59:31.774Z,1108.00
2023-04-22T05:00:31.746Z,1124.00
2023-04-22T05:01:31.813Z,1136.00
2023-04-22T05:02:31.919Z,1152.00
2023-04-22T05:03:31.965Z,1168.00
2023-04-22T05:04:31.972Z,1180.00
2023-04-22T05:05:31.746Z,1196.00
2023-04-22T05:06:31.739Z,1208.00
2023-04-22T05:07:31.757Z,1224.00
2023-04-22T05:08:31.758Z,1236.00
2023-04-22T05:09:31.740Z,1252.00
2023-04-22T05:10:31.737Z,1264.00
2023-04-22T05:11:31.736Z,1280.00
2023-04-22T05:12:31.727Z,1288.00
2023-04-22T05:13:31.743Z,1304.00
2023-04-22T05:14:31.725Z,1320.00
2023-04-22T05:15:31.727Z,1336.00
2023-04-22T05:16:31.775Z,1348.00
2023-04-22T05:17:31.766Z,1364.00
2023-04-22T05:18:31.723Z,1380.00
2023-04-22T05:19:31.736Z,1396.00
2023-04-22T05:20:34.562Z,1408.00
2023-04-22T05:21:31.714Z,1424.00
2023-04-22T05:22:31.712Z,1436.00
2023-04-22T05:23:31.714Z,1448.00
2023-04-22T05:24:31.734Z,1468.00
2023-04-22T05:25:31.724Z,1484.00
2023-04-22T05:26:31.715Z,1496.00
2023-04-22T05:27:31.708Z,1512.00
2023-04-22T05:28:31.703Z,1528.00
2023-04-22T05:29:31.709Z,1544.00
2023-04-22T05:30:31.696Z,1564.00
2023-04-22T05:31:31.800Z,1580.00
2023-04-22T05:32:31.758Z,1600.00
2023-04-22T05:33:31.706Z,1620.00
2023-04-22T05:34:31.696Z,1640.00
2023-04-22T05:35:31.692Z,1656.00
2023-04-22T05:36:31.776Z,1676.00
2023-04-22T05:37:31.687Z,1696.00
2023-04-22T05:38:31.675Z,1708.00
2023-04-22T05:39:31.681Z,1728.00
2023-04-22T05:40:31.698Z,1748.00
2023-04-22T05:41:31.680Z,1764.00
2023-04-22T05:42:31.672Z,1780.00
2023-04-22T05:43:31.671Z,1796.00
2023-04-22T05:44:31.679Z,1812.00
2023-04-22T05:45:31.710Z,1828.00
2023-04-22T05:46:31.817Z,1844.00
2023-04-22T05:47:31.710Z,1864.00
2023-04-22T05:48:31.663Z,1876.00
2023-04-22T05:49:31.662Z,1892.00
2023-04-22T05:50:31.666Z,1912.00
2023-04-22T05:51:31.661Z,1928.00
2023-04-22T05:52:31.652Z,1944.00
2023-04-22T05:53:31.656Z,1960.00
2023-04-22T05:54:31.652Z,1976.00
2023-04-22T05:55:31.657Z,1992.00
2023-04-22T05:56:31.665Z,2008.00
2023-04-22T05:57:31.647Z,2020.00
2023-04-22T05:58:31.641Z,2040.00
2023-04-22T05:59:31.652Z,2048.00
2023-04-22T06:00:31.636Z,2068.00
2023-04-22T06:01:31.637Z,2088.00
2023-04-22T06:02:31.742Z,2108.00
2023-04-22T06:03:31.848Z,2124.00
2023-04-22T06:04:35.391Z,2136.00
2023-04-22T06:05:31.734Z,2144.00
2023-04-22T06:06:31.640Z,2156.00
2023-04-22T06:07:31.637Z,2172.00
2023-04-22T06:08:31.627Z,2188.00
2023-04-22T06:09:31.630Z,2204.00
2023-04-22T06:10:31.656Z,2224.00
2023-04-22T06:11:31.638Z,2244.00
2023-04-22T06:12:31.641Z,2268.00
2023-04-22T06:13:31.617Z,2288.00
2023-04-22T06:14:31.612Z,2312.00
2023-04-22T06:15:31.663Z,2320.00
2023-04-22T06:16:31.611Z,2340.00
2023-04-22T06:17:31.633Z,2360.00
2023-04-22T06:18:31.607Z,2384.00
2023-04-22T06:19:31.607Z,2400.00
2023-04-22T06:20:31.601Z,2416.00
2023-04-22T06:21:31.616Z,2440.00
2023-04-22T06:22:31.602Z,2464.00
2023-04-22T06:23:31.608Z,2484.00
2023-04-22T06:24:31.601Z,2508.00
2023-04-22T06:25:31.598Z,2532.00
2023-04-22T06:26:31.594Z,2560.00
2023-04-22T06:27:31.600Z,2592.00
2023-04-22T06:28:31.619Z,2616.00
2023-04-22T06:29:31.591Z,2648.00
2023-04-22T06:30:31.586Z,2676.00
2023-04-22T06:31:31.669Z,2704.00
2023-04-22T06:32:31.597Z,2732.00
2023-04-22T06:33:31.598Z,2764.00
2023-04-22T06:34:31.582Z,2792.00
2023-04-22T06:35:31.597Z,2820.00
2023-04-22T06:36:31.581Z,2840.00
2023-04-22T06:37:31.579Z,2872.00
2023-04-22T06:38:31.579Z,2904.00
2023-04-22T06:39:31.577Z,2928.00
2023-04-22T06:40:31.571Z,2956.00
2023-04-22T06:41:31.577Z,2984.00
2023-04-22T06:42:31.582Z,3016.00
2023-04-22T06:43:31.580Z,3044.00
2023-04-22T06:44:31.586Z,3080.00
2023-04-22T06:45:31.567Z,3112.00
2023-04-22T06:46:31.617Z,3140.00
2023-04-22T06:47:31.600Z,3172.00
2023-04-22T06:48:31.565Z,3200.00
2023-04-22T06:49:31.565Z,3236.00
2023-04-22T06:50:31.567Z,3276.00
2023-04-22T06:51:31.600Z,3244.00
2023-04-22T06:52:31.570Z,3340.00
2023-04-22T06:53:31.564Z,3256.00
2023-04-22T06:54:31.564Z,3296.00
2023-04-22T06:55:31.562Z,3476.00
2023-04-22T06:56:31.558Z,3460.00
2023-04-22T06:57:31.557Z,3420.00
2023-04-22T06:58:31.550Z,3684.00
2023-04-22T06:59:31.555Z,3744.00
2023-04-22T07:00:31.602Z,3788.00
2023-04-22T07:01:31.582Z,3832.00
2023-04-22T07:02:31.678Z,3888.00
2023-04-22T07:03:31.888Z,3948.00
2023-04-22T07:04:31.726Z,4020.00
2023-04-22T07:05:31.549Z,4100.00
2023-04-22T07:06:31.548Z,4180.00
2023-04-22T07:07:31.558Z,4284.00
2023-04-22T07:08:31.550Z,4476.00
2023-04-22T07:09:31.556Z,4876.00
2023-04-22T07:10:31.543Z,5400.00
2023-04-22T07:11:31.581Z,5872.00
2023-04-22T07:12:31.547Z,6192.00
2023-04-22T07:13:31.549Z,6476.00
2023-04-22T07:14:31.556Z,6860.00
2023-04-22T07:15:31.555Z,7372.00
2023-04-22T07:16:31.702Z,8052.00
2023-04-22T07:17:31.575Z,9160.00
2023-04-22T07:18:31.542Z,11856.00
2023-04-22T07:19:35.602Z,22176.00
2023-04-22T07:20:31.555Z,33344.00
2023-04-22T07:21:31.550Z,33280.00
2023-04-22T07:22:31.543Z,34624.00
2023-04-22T07:23:31.550Z,36512.00
2023-04-22T07:24:31.539Z,33824.00
2023-04-22T07:25:31.547Z,33632.00
2023-04-22T07:26:31.547Z,35552.00
2023-04-22T07:27:31.556Z,33600.00
2023-04-22T07:28:31.543Z,36352.00
2023-04-22T07:29:31.554Z,41376.00
2023-04-22T07:30:31.551Z,36192.00
2023-04-22T07:31:31.588Z,36960.00
2023-04-22T07:32:31.618Z,40992.00
2023-04-22T07:33:31.546Z,30848.00
2023-04-22T07:34:31.565Z,12392.00
2023-04-22T07:35:31.552Z,8208.00
2023-04-22T07:36:31.570Z,8228.00
2023-04-22T07:37:31.555Z,8332.00
2023-04-22T07:38:31.563Z,8428.00
2023-04-22T07:39:31.551Z,8588.00
2023-04-22T07:40:31.562Z,8576.00
2023-04-22T07:41:31.553Z,8580.00
2023-04-22T07:42:31.620Z,8640.00
2023-04-22T07:43:31.559Z,8684.00
2023-04-22T07:44:31.558Z,8712.00
2023-04-22T07:45:31.614Z,8772.00
2023-04-22T07:46:31.570Z,8884.00
2023-04-22T07:47:31.659Z,8984.00
2023-04-22T07:48:31.593Z,9056.00
2023-04-22T07:49:31.561Z,9156.00
2023-04-22T07:50:31.592Z,9396.00
2023-04-22T07:51:31.562Z,12164.00
2023-04-22T07:52:31.569Z,20608.00
2023-04-22T07:53:31.573Z,30656.00
2023-04-22T07:54:31.573Z,38528.00
2023-04-22T07:55:31.581Z,42016.00
2023-04-22T07:56:31.577Z,39776.00
2023-04-22T07:57:31.612Z,34464.00
2023-04-22T07:58:31.629Z,28160.00
2023-04-22T07:59:31.660Z,18304.00
2023-04-22T08:00:31.670Z,10036.00
2023-04-22T08:01:31.616Z,8260.00
2023-04-22T08:02:31.700Z,7956.00
2023-04-22T08:03:31.835Z,7752.00
2023-04-22T08:04:31.709Z,7652.00
2023-04-22T08:05:31.593Z,7560.00
2023-04-22T08:06:31.599Z,7476.00
2023-04-22T08:07:33.509Z,7424.00
2023-04-22T08:08:31.600Z,7420.00
2023-04-22T08:09:31.602Z,7400.00
2023-04-22T08:10:31.605Z,7556.00
2023-04-22T08:11:31.607Z,7844.00
2023-04-22T08:12:31.613Z,8404.00
2023-04-22T08:13:31.607Z,18176.00
2023-04-22T08:14:31.651Z,44096.00
2023-04-22T08:15:31.669Z,51520.00
2023-04-22T08:16:31.700Z,51680.00
2023-04-22T08:17:31.676Z,55488.00
2023-04-22T08:18:31.872Z,58336.00
2023-04-22T08:19:31.714Z,53888.00
2023-04-22T08:20:31.736Z,52864.00
2023-04-22T08:21:31.686Z,56608.00
2023-04-22T08:22:31.700Z,56352.00
2023-04-22T08:23:31.676Z,54624.00
2023-04-22T08:24:31.683Z,55264.00
2023-04-22T08:25:31.658Z,58432.00
2023-04-22T08:26:31.681Z,57856.00
2023-04-22T08:27:31.714Z,59776.00
2023-04-22T08:28:31.716Z,62080.00
2023-04-22T08:29:31.688Z,64480.00
2023-04-22T08:30:31.763Z,64000.00
2023-04-22T08:31:31.766Z,59872.00
2023-04-22T08:32:31.748Z,56288.00
2023-04-22T08:33:31.675Z,58752.00
2023-04-22T08:34:31.686Z,61696.00
2023-04-22T08:35:31.689Z,63904.00
2023-04-22T08:36:31.714Z,63552.00
2023-04-22T08:37:31.709Z,59712.00
2023-04-22T08:38:31.712Z,63648.00
2023-04-22T08:39:31.745Z,67200.00
2023-04-22T08:40:31.721Z,56736.00
2023-04-22T08:41:31.737Z,24384.00
2023-04-22T08:42:31.740Z,12388.00
2023-04-22T08:43:31.741Z,11740.00
2023-04-22T08:44:31.759Z,11348.00
2023-04-22T08:45:31.762Z,10992.00
2023-04-22T08:46:31.800Z,10648.00
2023-04-22T08:47:31.812Z,10260.00
2023-04-22T08:48:31.786Z,9908.00
2023-04-22T08:49:31.786Z,9612.00
2023-04-22T08:50:31.803Z,9412.00
2023-04-22T08:51:31.807Z,10880.00
2023-04-22T08:52:31.842Z,24544.00
2023-04-22T08:53:31.821Z,35136.00
2023-04-22T08:54:31.834Z,27008.00
2023-04-22T08:55:31.835Z,19232.00
2023-04-22T08:56:31.851Z,12148.00
2023-04-22T08:57:31.856Z,9668.00
2023-04-22T08:58:31.858Z,9368.00
2023-04-22T08:59:31.867Z,9292.00
2023-04-22T09:00:31.882Z,9288.00
2023-04-22T09:01:31.923Z,9340.00
2023-04-22T09:02:31.966Z,9428.00
2023-04-22T09:03:31.945Z,9464.00
2023-04-22T09:04:31.959Z,9540.00
2023-04-22T09:05:31.911Z,9572.00
2023-04-22T09:06:31.920Z,9644.00
2023-04-22T09:07:31.931Z,4600.00
2023-04-22T09:08:31.966Z,3872.00
2023-04-22T09:09:31.940Z,3896.00
2023-04-22T09:10:33.623Z,3904.00
2023-04-22T09:11:31.954Z,3908.00
2023-04-22T09:12:31.967Z,3924.00
2023-04-22T09:13:31.978Z,3952.00
2023-04-22T09:14:31.976Z,3956.00
2023-04-22T09:15:32.021Z,3976.00
2023-04-22T09:16:32.154Z,3996.00
2023-04-22T09:17:32.056Z,3992.00
2023-04-22T09:18:32.002Z,4020.00
2023-04-22T09:19:32.009Z,4036.00
2023-04-22T09:20:32.016Z,4052.00
2023-04-22T09:21:32.028Z,4056.00
2023-04-22T09:22:32.033Z,4052.00
2023-04-22T09:23:32.033Z,4080.00
2023-04-22T09:24:32.072Z,4100.00
2023-04-22T09:25:32.048Z,4120.00
2023-04-22T09:26:32.051Z,4176.00
2023-04-22T09:27:32.073Z,4216.00
2023-04-22T09:28:32.070Z,4240.00
2023-04-22T09:29:32.078Z,4264.00
2023-04-22T09:30:32.081Z,4308.00
2023-04-22T09:31:32.104Z,4340.00
2023-04-22T09:32:32.121Z,4336.00
2023-04-22T09:33:32.106Z,4180.00
2023-04-22T09:34:32.095Z,4192.00
2023-04-22T09:35:32.096Z,4200.00
2023-04-22T09:36:32.110Z,4220.00
2023-04-22T09:37:42.788Z,4120.00
2023-04-22T09:38:32.117Z,4208.00
2023-04-22T09:39:32.112Z,4220.00
2023-04-22T09:40:32.132Z,4168.00
2023-04-22T09:41:32.129Z,4184.00
2023-04-22T09:42:32.129Z,4308.00
2023-04-22T09:43:32.135Z,4296.00
2023-04-22T09:44:32.141Z,4316.00
2023-04-22T09:45:32.185Z,4336.00
2023-04-22T09:46:32.158Z,4352.00
2023-04-22T09:50:08.031Z,4404.00
2023-04-22T09:51:08.030Z,4396.00
2023-04-22T09:52:08.057Z,4408.00
2023-04-22T09:53:08.046Z,4436.00
2023-04-22T09:54:08.046Z,4452.00
2023-04-22T09:55:08.050Z,4444.00
2023-04-22T09:56:08.068Z,4500.00
2023-04-22T09:57:08.925Z,4488.00
2023-04-22T09:58:08.067Z,4504.00
2023-04-22T09:59:08.058Z,4500.00
2023-04-22T10:00:08.071Z,4516.00
2023-04-22T10:01:08.101Z,4536.00
2023-04-22T10:02:08.115Z,4568.00
2023-04-22T10:03:09.833Z,4584.00
2023-04-22T10:04:08.124Z,4604.00
2023-04-22T10:05:08.090Z,4632.00
2023-04-22T10:06:08.090Z,4640.00
2023-04-22T10:07:08.093Z,4648.00
2023-04-22T10:08:08.173Z,4656.00
2023-04-22T10:09:09.486Z,4688.00
2023-04-22T10:10:08.113Z,4620.00
2023-04-22T10:11:08.105Z,4672.00
2023-04-22T10:12:08.136Z,4700.00
2023-04-22T10:13:08.112Z,4712.00
2023-04-22T10:14:08.123Z,4704.00
2023-04-22T10:15:08.120Z,4704.00
2023-04-22T10:16:08.180Z,4632.00
2023-04-22T10:17:08.271Z,4692.00
2023-04-22T10:18:08.134Z,4744.00
2023-04-22T10:19:08.131Z,4836.00
2023-04-22T10:20:08.185Z,4824.00
2023-04-22T10:21:08.140Z,4848.00
2023-04-22T10:22:08.150Z,4864.00
2023-04-22T10:23:08.147Z,4880.00
2023-04-22T10:24:08.155Z,4860.00
2023-04-22T10:25:08.151Z,4884.00
2023-04-22T10:26:08.165Z,4880.00
2023-04-22T10:27:08.171Z,4896.00
2023-04-22T10:28:08.190Z,4904.00
2023-04-22T10:29:08.168Z,4936.00
2023-04-22T10:30:08.174Z,4936.00
2023-04-22T10:31:08.210Z,4948.00
2023-04-22T10:32:10.326Z,4940.00
2023-04-22T10:33:08.178Z,5020.00
2023-04-22T10:34:08.310Z,4992.00
2023-04-22T10:35:08.208Z,5052.00
2023-04-22T10:36:08.216Z,5036.00
2023-04-22T10:37:08.195Z,4988.00
2023-04-22T10:38:08.198Z,5048.00
2023-04-22T10:39:08.202Z,5048.00
2023-04-22T10:40:08.206Z,5064.00
2023-04-22T10:41:08.221Z,5060.00
2023-04-22T10:42:08.216Z,5064.00
2023-04-22T10:43:08.214Z,5064.00
2023-04-22T10:44:08.251Z,5112.00
2023-04-22T10:45:08.222Z,5128.00
2023-04-22T10:46:08.236Z,5120.00
2023-04-22T10:47:08.227Z,5124.00
2023-04-22T10:48:08.277Z,5140.00
2023-04-22T10:49:08.258Z,5184.00
2023-04-22T10:50:08.244Z,5200.00
2023-04-22T10:51:08.239Z,5164.00
2023-04-22T10:52:08.249Z,5168.00
2023-04-22T10:53:08.251Z,5128.00
2023-04-22T10:54:08.254Z,5140.00
2023-04-22T10:55:08.254Z,5144.00
2023-04-22T10:56:08.269Z,5140.00
2023-04-22T10:57:08.276Z,5180.00
2023-04-22T10:58:08.271Z,5140.00
2023-04-22T10:59:08.272Z,4828.00
2023-04-22T11:00:08.303Z,4792.00
2023-04-22T11:01:08.311Z,4808.00
2023-04-22T11:02:08.327Z,4912.00
2023-04-22T11:03:08.504Z,5020.00
2023-04-22T11:04:08.363Z,5208.00
2023-04-22T11:05:08.298Z,6128.00
2023-04-22T11:06:08.297Z,6148.00
2023-04-22T11:07:08.298Z,6136.00
2023-04-22T11:08:08.309Z,6116.00
2023-04-22T11:09:08.318Z,6036.00
2023-04-22T11:10:08.321Z,6016.00
2023-04-22T11:11:08.315Z,5908.00
2023-04-22T11:12:08.321Z,5988.00
2023-04-22T11:13:08.325Z,5972.00
2023-04-22T11:14:08.341Z,5984.00
2023-04-22T11:15:08.328Z,6164.00
2023-04-22T11:16:08.371Z,6192.00
2023-04-22T11:17:08.336Z,6180.00
2023-04-22T11:18:08.345Z,6184.00
2023-04-22T11:19:08.349Z,6216.00
2023-04-22T11:20:08.355Z,6252.00
2023-04-22T11:21:08.364Z,6236.00
2023-04-22T11:22:08.361Z,6300.00
2023-04-22T11:23:08.360Z,6296.00
2023-04-22T11:24:08.371Z,6320.00
2023-04-22T11:25:08.373Z,6332.00
2023-04-22T11:26:08.396Z,6328.00
2023-04-22T11:27:08.374Z,6292.00
2023-04-22T11:28:08.391Z,6416.00
2023-04-22T11:29:08.381Z,6464.00
2023-04-22T11:30:08.387Z,6528.00
2023-04-22T11:31:08.519Z,6544.00
2023-04-22T11:32:08.420Z,6580.00
2023-04-22T11:33:08.404Z,6624.00
2023-04-22T11:34:08.404Z,6660.00
2023-04-22T11:35:08.426Z,6736.00
2023-04-22T11:36:08.434Z,6784.00
2023-04-22T11:37:08.420Z,6860.00
2023-04-22T11:38:08.420Z,6996.00
2023-04-22T11:39:08.424Z,7052.00
2023-04-22T11:40:29.370Z,7112.00
2023-04-22T11:41:08.442Z,7220.00
2023-04-22T11:42:08.433Z,7952.00
2023-04-22T11:43:08.446Z,7584.00
2023-04-22T11:44:08.446Z,7792.00
2023-04-22T11:45:08.443Z,8104.00
2023-04-22T11:46:08.507Z,8632.00
2023-04-22T11:47:08.473Z,9064.00
2023-04-22T11:48:08.485Z,9696.00
2023-04-22T11:49:08.478Z,27840.00
2023-04-22T11:50:08.468Z,27840.00
2023-04-22T11:51:08.479Z,60928.00
2023-04-22T11:52:08.481Z,72384.00
2023-04-22T11:53:08.482Z,71200.00
2023-04-22T11:54:08.494Z,79200.00
2023-04-22T11:55:08.497Z,80864.00
2023-04-22T11:56:08.502Z,79072.00
2023-04-22T11:57:08.520Z,73856.00
2023-04-22T11:58:08.536Z,68128.00
2023-04-22T11:59:08.520Z,72256.00
2023-04-22T12:00:08.523Z,85632.00
2023-04-22T12:01:08.539Z,92480.00
2023-04-22T12:02:08.617Z,89088.00
2023-04-22T12:03:08.725Z,77824.00
2023-04-22T12:04:08.658Z,73888.00
2023-04-22T12:05:08.606Z,76704.00
2023-04-22T12:06:08.583Z,85408.00
2023-04-22T12:07:08.599Z,90112.00
2023-04-22T12:08:08.606Z,87296.00
2023-04-22T12:09:08.612Z,79008.00
2023-04-22T12:10:08.626Z,73984.00
2023-04-22T12:11:08.635Z,79424.00
2023-04-22T12:12:08.656Z,81088.00
2023-04-22T12:13:08.662Z,80736.00
2023-04-22T12:14:08.679Z,81248.00
2023-04-22T12:15:08.690Z,79200.00
2023-04-22T12:16:08.709Z,78560.00
2023-04-22T12:17:08.789Z,75968.00
2023-04-22T12:18:08.741Z,75072.00
2023-04-22T12:19:08.751Z,75328.00
2023-04-22T12:20:08.792Z,76032.00
2023-04-22T12:21:08.784Z,74336.00
2023-04-22T12:22:08.811Z,70560.00
2023-04-22T12:23:08.816Z,66880.00
2023-04-22T12:24:08.835Z,70528.00
2023-04-22T12:25:08.849Z,76288.00
2023-04-22T12:26:08.867Z,78656.00
2023-04-22T12:27:08.882Z,75776.00
2023-04-22T12:28:08.947Z,70656.00